createdAt,value
2023-04-01T00:00:12.831Z,4.68
2023-04-01T00:02:44.858Z,2.85
2023-04-01T00:05:15.811Z,5.22
2023-04-01T00:07:50.200Z,4.20
2023-04-01T00:10:21.178Z,6.03
2023-04-01T00:12:52.003Z,12.98
2023-04-01T00:15:22.358Z,17.50
2023-04-01T00:17:53.083Z,17.65
2023-04-01T00:20:24.216Z,29.75
2023-04-01T00:22:54.914Z,19.52
2023-04-01T00:25:26.649Z,20.48
2023-04-01T00:27:58.173Z,20.80
2023-04-01T00:30:28.664Z,27.80
2023-04-01T00:33:00.154Z,9.00
2023-04-01T00:35:32.043Z,6.35
2023-04-01T00:38:04.293Z,6.80
2023-04-01T00:40:42.228Z,5.85
2023-04-01T00:43:17.176Z,8.93
2023-04-01T00:45:49.607Z,6.70
2023-04-01T00:48:25.244Z,9.73
2023-04-01T00:51:00.884Z,5.90
2023-04-01T00:53:32.594Z,15.10
2023-04-01T00:56:17.338Z,12.40
2023-04-01T00:58:54.439Z,34.85
2023-04-01T01:01:26.942Z,26.25
2023-04-01T01:03:57.341Z,31.10
2023-04-01T01:06:27.703Z,15.38
2023-04-01T01:09:13.236Z,16.45
2023-04-01T01:11:50.229Z,10.25
2023-04-01T01:14:49.102Z,14.75
2023-04-01T01:17:54.313Z,9.98
2023-04-01T01:20:44.767Z,9.40
2023-04-01T01:23:26.844Z,12.75
2023-04-01T01:26:42.947Z,13.88
2023-04-01T01:29:52.520Z,8.52
2023-04-01T01:32:52.848Z,9.60
2023-04-01T01:35:48.356Z,9.95
2023-04-01T01:38:26.803Z,5.95
2023-04-01T01:41:08.701Z,7.80
2023-04-01T01:43:44.300Z,8.80
2023-04-01T01:46:20.206Z,12.32
2023-04-01T01:48:54.391Z,10.93
2023-04-01T01:51:26.496Z,8.73
2023-04-01T01:53:58.110Z,13.98
2023-04-01T01:56:32.089Z,12.85
2023-04-01T01:59:07.963Z,13.38
2023-04-01T02:01:43.261Z,10.02
2023-04-01T02:04:19.058Z,14.73
2023-04-01T02:07:06.871Z,12.68
2023-04-01T02:09:38.249Z,11.98
2023-04-01T02:12:12.733Z,9.98
2023-04-01T02:14:48.465Z,13.07
2023-04-01T02:17:31.496Z,13.38
2023-04-01T02:20:17.559Z,12.80
2023-04-01T02:22:54.808Z,10.10
2023-04-01T02:25:30.211Z,10.85
2023-04-01T02:28:03.641Z,13.70
2023-04-01T02:30:37.103Z,12.23
2023-04-01T02:33:10.188Z,11.68
2023-04-01T02:35:41.493Z,14.38
2023-04-01T02:38:12.070Z,10.10
2023-04-01T02:40:52.456Z,11.38
2023-04-01T02:43:23.745Z,13.85
2023-04-01T02:45:54.137Z,13.45
2023-04-01T02:48:24.951Z,12.32
2023-04-01T02:50:55.449Z,13.63
2023-04-01T02:53:26.937Z,12.57
2023-04-01T02:55:58.336Z,16.83
2023-04-01T02:58:28.437Z,13.35
2023-04-01T03:00:58.583Z,11.55
2023-04-01T03:03:28.724Z,11.93
2023-04-01T03:06:01.012Z,10.80
2023-04-01T03:08:32.168Z,13.23
2023-04-01T03:11:03.394Z,12.50
2023-04-01T03:13:37.119Z,15.27
2023-04-01T03:16:07.821Z,8.50
2023-04-01T03:18:38.679Z,15.40
2023-04-01T03:21:25.899Z,14.80
2023-04-01T03:23:55.936Z,12.73
2023-04-01T03:26:26.671Z,14.43
2023-04-01T03:28:58.547Z,13.70
2023-04-01T03:31:29.095Z,15.35
2023-04-01T03:34:01.316Z,12.90
2023-04-01T03:36:32.820Z,15.10
2023-04-01T03:39:04.109Z,14.55
2023-04-01T03:41:43.546Z,11.18
2023-04-01T03:44:15.544Z,18.08
2023-04-01T03:46:46.763Z,14.60
2023-04-01T03:49:19.634Z,13.15
2023-04-01T03:51:49.929Z,14.18
2023-04-01T03:54:23.708Z,16.63
2023-04-01T03:56:54.873Z,16.48
2023-04-01T03:59:25.460Z,15.80
2023-04-01T04:01:55.610Z,11.10
2023-04-01T04:04:30.580Z,8.25
2023-04-01T04:07:02.167Z,10.15
2023-04-01T04:09:39.289Z,11.27
2023-04-01T04:12:13.489Z,12.38
2023-04-01T04:14:43.822Z,10.95
2023-04-01T04:17:18.532Z,8.40
2023-04-01T04:19:49.025Z,10.52
2023-04-01T04:22:19.892Z,10.95
2023-04-01T04:24:51.634Z,7.50
2023-04-01T04:27:24.453Z,10.23
2023-04-01T04:30:06.235Z,6.07
2023-04-01T04:32:39.095Z,9.20
2023-04-01T04:35:10.341Z,4.75
2023-04-01T04:37:40.867Z,6.43
2023-04-01T04:40:11.776Z,8.25
2023-04-01T04:42:43.259Z,7.82
2023-04-01T04:45:17.725Z,5.82
2023-04-01T04:47:57.632Z,9.07
2023-04-01T04:50:30.074Z,5.90
2023-04-01T04:53:01.297Z,6.13
2023-04-01T04:55:36.873Z,5.05
2023-04-01T04:58:25.345Z,8.05
2023-04-01T05:00:56.839Z,5.50
2023-04-01T05:03:31.525Z,10.98
2023-04-01T05:06:03.358Z,13.20
2023-04-01T05:08:36.361Z,7.80
2023-04-01T05:11:07.046Z,8.25
2023-04-01T05:13:41.025Z,8.88
2023-04-01T05:16:19.443Z,6.95
2023-04-01T05:18:52.016Z,9.10
2023-04-01T05:21:22.358Z,9.30
2023-04-01T05:23:56.026Z,9.80
2023-04-01T05:26:27.837Z,10.52
2023-04-01T05:28:58.289Z,9.68
2023-04-01T05:31:29.296Z,10.07
2023-04-01T05:34:03.966Z,9.50
2023-04-01T05:36:41.812Z,11.93
2023-04-01T05:39:15.871Z,5.65
2023-04-01T05:41:47.665Z,6.43
2023-04-01T05:44:18.302Z,3.95
2023-04-01T05:47:08.472Z,5.68
2023-04-01T05:49:42.525Z,3.92
2023-04-01T05:52:19.644Z,7.63
2023-04-01T05:54:52.823Z,7.85
2023-04-01T05:57:23.806Z,7.10
2023-04-01T05:59:54.075Z,5.60
2023-04-01T06:02:24.437Z,5.95
2023-04-01T06:05:20.159Z,5.35
2023-04-01T06:08:09.924Z,6.88
2023-04-01T06:10:55.247Z,5.30
2023-04-01T06:14:08.392Z,8.10
2023-04-01T06:16:49.822Z,4.35
2023-04-01T06:19:44.064Z,3.97
2023-04-01T06:22:18.005Z,7.55
2023-04-01T06:25:15.469Z,3.80
2023-04-01T06:28:10.747Z,6.30
2023-04-01T06:30:51.746Z,8.15
2023-04-01T06:33:57.185Z,9.07
2023-04-01T06:36:56.163Z,6.70
2023-04-01T06:39:52.574Z,7.25
2023-04-01T06:42:34.612Z,5.10
2023-04-01T06:45:10.680Z,9.70
2023-04-01T06:48:17.902Z,6.10
2023-04-01T06:51:21.163Z,7.57
2023-04-01T06:54:14.222Z,3.42
2023-04-01T06:57:21.283Z,6.00
2023-04-01T06:59:52.642Z,6.70
2023-04-01T07:02:49.269Z,3.67
2023-04-01T07:05:20.152Z,4.63
2023-04-01T07:07:58.318Z,5.18
2023-04-01T07:10:46.799Z,5.38
2023-04-01T07:13:50.420Z,9.25
2023-04-01T07:16:35.585Z,6.15
2023-04-01T07:19:26.686Z,6.35
2023-04-01T07:22:27.460Z,6.93
2023-04-01T07:25:29.116Z,6.53
2023-04-01T07:28:19.394Z,6.47
2023-04-01T07:31:30.979Z,8.10
2023-04-01T07:34:13.872Z,6.45
2023-04-01T07:36:55.667Z,4.05
2023-04-01T07:39:44.519Z,3.00
2023-04-01T07:42:34.873Z,4.55
2023-04-01T07:45:32.253Z,7.60
2023-04-01T07:48:37.840Z,4.55
2023-04-01T07:51:14.880Z,4.72
2023-04-01T07:54:13.335Z,6.13
2023-04-01T07:56:54.407Z,4.70
2023-04-01T07:59:37.974Z,4.03
2023-04-01T08:03:14.518Z,5.03
2023-04-01T08:06:22.997Z,3.08
2023-04-01T08:09:17.114Z,7.93
2023-04-01T08:12:40.637Z,3.08
2023-04-01T08:15:57.470Z,2.70
2023-04-01T08:18:59.756Z,5.18
2023-04-01T08:21:44.820Z,3.67
2023-04-01T08:24:48.332Z,3.92
2023-04-01T08:27:26.721Z,3.92
2023-04-01T08:30:18.628Z,4.15
2023-04-01T08:33:03.263Z,5.50
2023-04-01T08:35:52.356Z,7.88
2023-04-01T08:38:32.723Z,5.97
2023-04-01T08:41:30.483Z,4.97
2023-04-01T08:44:38.186Z,6.72
2023-04-01T08:47:33.840Z,6.38
2023-04-01T08:50:05.246Z,5.38
2023-04-01T08:53:04.127Z,3.53
2023-04-01T08:55:41.313Z,5.43
2023-04-01T08:58:25.628Z,6.20
2023-04-01T09:01:30.472Z,4.35
2023-04-01T09:04:18.884Z,5.47
2023-04-01T09:07:21.150Z,3.60
2023-04-01T09:10:01.981Z,6.32
2023-04-01T09:13:02.539Z,4.82
2023-04-01T09:15:52.968Z,7.38
2023-04-01T09:18:58.458Z,10.55
2023-04-01T09:21:45.232Z,6.55
2023-04-01T09:24:55.650Z,7.35
2023-04-01T09:27:37.286Z,7.28
2023-04-01T09:30:17.158Z,5.28
2023-04-01T09:33:05.925Z,4.35
2023-04-01T09:36:14.422Z,6.78
2023-04-01T09:38:56.461Z,7.18
2023-04-01T09:41:31.998Z,9.35
2023-04-01T09:44:41.187Z,5.85
2023-04-01T09:47:33.413Z,5.88
2023-04-01T09:50:39.979Z,8.15
2023-04-01T09:53:23.715Z,5.60
2023-04-01T09:56:34.453Z,6.40
2023-04-01T09:59:28.059Z,8.65
2023-04-01T10:03:00.864Z,6.00
2023-04-01T10:06:02.498Z,5.32
2023-04-01T10:09:09.939Z,8.13
2023-04-01T10:12:00.164Z,6.00
2023-04-01T10:14:46.279Z,7.63
2023-04-01T10:17:41.683Z,5.40
2023-04-01T10:20:51.344Z,5.45
2023-04-01T10:23:43.132Z,6.22
2023-04-01T10:26:28.755Z,6.72
2023-04-01T10:29:31.884Z,5.90
2023-04-01T10:33:02.115Z,7.60
2023-04-01T10:35:36.477Z,5.25
2023-04-01T10:38:34.798Z,4.97
2023-04-01T10:41:18.045Z,4.38
2023-04-01T10:44:34.464Z,9.15
2023-04-01T10:47:36.176Z,8.32
2023-04-01T10:50:45.188Z,6.43
2023-04-01T10:53:35.148Z,8.73
2023-04-01T10:56:44.113Z,5.57
2023-04-01T10:59:49.432Z,3.72
2023-04-01T11:03:03.461Z,4.30
2023-04-01T11:06:11.602Z,3.65
2023-04-01T11:08:59.646Z,5.15
2023-04-01T11:11:33.463Z,6.78
2023-04-01T11:14:36.436Z,6.18
2023-04-01T11:17:32.934Z,5.30
2023-04-01T11:20:25.210Z,5.88
2023-04-01T11:23:16.989Z,5.70
2023-04-01T11:25:58.778Z,5.15
2023-04-01T11:29:15.024Z,5.97
2023-04-01T11:32:06.986Z,6.38
2023-04-01T11:34:49.183Z,6.85
2023-04-01T11:37:37.819Z,4.63
2023-04-01T11:41:17.432Z,7.72
2023-04-01T11:44:20.236Z,7.82
2023-04-01T11:47:22.250Z,6.65
2023-04-01T11:49:52.947Z,3.83
2023-04-01T11:52:48.948Z,5.97
2023-04-01T11:55:22.899Z,4.35
2023-04-01T11:58:12.572Z,6.50
2023-04-01T12:01:03.578Z,6.88
2023-04-01T12:03:34.192Z,8.02
2023-04-01T12:06:24.846Z,6.75
2023-04-01T12:09:28.782Z,5.90
2023-04-01T12:12:18.675Z,5.55
2023-04-01T12:15:16.704Z,8.10
2023-04-01T12:18:26.376Z,5.78
2023-04-01T12:21:31.474Z,5.45
2023-04-01T12:24:36.907Z,7.50
2023-04-01T12:27:22.185Z,4.68
2023-04-01T12:30:17.052Z,4.13
2023-04-01T12:33:21.652Z,6.05
2023-04-01T12:35:58.584Z,3.38
2023-04-01T12:38:33.209Z,3.60
2023-04-01T12:41:36.547Z,4.75
2023-04-01T12:44:17.464Z,11.00
2023-04-01T12:47:14.011Z,9.18
2023-04-01T12:49:59.535Z,5.13
2023-04-01T12:52:41.661Z,3.30
2023-04-01T12:55:43.199Z,6.30
2023-04-01T12:58:54.201Z,4.97
2023-04-01T13:01:45.819Z,5.72
2023-04-01T13:04:47.448Z,4.28
2023-04-01T13:07:32.626Z,4.53
2023-04-01T13:10:20.610Z,5.93
2023-04-01T13:13:44.542Z,5.78
2023-04-01T13:16:23.870Z,4.93
2023-04-01T13:20:05.481Z,5.38
2023-04-01T13:22:55.265Z,6.88
2023-04-01T13:25:35.773Z,4.10
2023-04-01T13:28:29.139Z,6.93
2023-04-01T13:31:06.670Z,4.35
2023-04-01T13:34:00.629Z,6.15
2023-04-01T13:36:58.483Z,3.95
2023-04-01T13:39:51.018Z,5.25
2023-04-01T13:42:32.848Z,7.00
2023-04-01T13:48:23.965Z,8.98
2023-04-01T13:51:13.650Z,5.38
2023-04-01T13:54:16.292Z,5.20
2023-04-01T13:56:49.956Z,5.68
2023-04-01T13:59:24.241Z,4.78
2023-04-01T14:02:48.315Z,11.18
2023-04-01T14:08:57.973Z,4.93
2023-04-01T14:11:44.709Z,5.90
2023-04-01T14:14:32.528Z,6.10
2023-04-01T14:17:41.124Z,6.78
2023-04-01T14:20:36.755Z,6.28
2023-04-01T14:23:46.222Z,5.22
2023-04-01T14:26:16.560Z,5.22
2023-04-01T14:29:03.564Z,4.15
2023-04-01T14:31:55.446Z,8.00
2023-04-01T14:35:04.661Z,5.35
2023-04-01T14:38:16.480Z,5.47
2023-04-01T14:41:13.218Z,6.80
2023-04-01T14:44:01.113Z,4.97
2023-04-01T14:47:07.706Z,6.70
2023-04-01T14:49:46.309Z,5.18
2023-04-01T14:52:33.472Z,9.85
2023-04-01T14:55:05.870Z,4.40
2023-04-01T14:57:38.760Z,5.65
2023-04-01T15:00:20.955Z,6.97
2023-04-01T15:03:01.376Z,6.22
2023-04-01T15:05:40.966Z,4.85
2023-04-01T15:08:33.442Z,6.30
2023-04-01T15:11:36.942Z,4.95
2023-04-01T15:14:30.366Z,8.45
2023-04-01T15:17:21.022Z,3.92
2023-04-01T15:19:59.883Z,4.82
2023-04-01T15:23:05.207Z,6.65
2023-04-01T15:25:58.608Z,4.53
2023-04-01T15:28:43.919Z,5.00
2023-04-01T15:31:22.685Z,5.57
2023-04-01T15:34:06.421Z,5.50
2023-04-01T15:36:41.476Z,7.82
2023-04-01T15:39:22.150Z,5.72
2023-04-01T15:42:17.748Z,3.03
2023-04-01T15:45:30.769Z,4.78
2023-04-01T15:48:38.886Z,7.07
2023-04-01T15:51:20.798Z,5.97
2023-04-01T15:54:11.964Z,6.35
2023-04-01T15:56:55.776Z,5.88
2023-04-01T15:59:33.117Z,4.70
2023-04-01T16:02:22.920Z,5.32
2023-04-01T16:04:58.802Z,6.20
2023-04-01T16:07:31.974Z,5.15
2023-04-01T16:10:31.331Z,4.55
2023-04-01T16:13:09.972Z,4.95
2023-04-01T16:16:10.190Z,5.43
2023-04-01T16:18:49.168Z,9.25
2023-04-01T16:21:46.073Z,4.03
2023-04-01T16:24:50.654Z,4.63
2023-04-01T16:27:45.585Z,5.65
2023-04-01T16:30:44.608Z,8.73
2023-04-01T16:34:23.230Z,7.72
2023-04-01T16:37:17.173Z,6.03
2023-04-01T16:40:03.801Z,7.63
2023-04-01T16:42:54.756Z,8.95
2023-04-01T16:45:43.429Z,6.35
2023-04-01T16:48:24.036Z,5.90
2023-04-01T16:51:18.819Z,4.72
2023-04-01T16:54:24.850Z,3.85
2023-04-01T17:00:04.008Z,6.25
2023-04-01T17:03:07.997Z,5.70
2023-04-01T17:05:40.036Z,6.13
2023-04-01T17:08:25.887Z,5.13
2023-04-01T17:11:06.399Z,6.20
2023-04-01T17:14:13.460Z,7.10
2023-04-01T17:17:14.516Z,4.57
2023-04-01T17:20:19.472Z,7.35
2023-04-01T17:22:55.897Z,6.88
2023-04-01T17:25:53.120Z,7.15
2023-04-01T17:29:07.857Z,9.38
2023-04-01T17:31:48.518Z,5.15
2023-04-01T17:34:37.042Z,7.88
2023-04-01T17:37:29.867Z,5.25
2023-04-01T17:40:15.062Z,8.23
2023-04-01T17:42:59.063Z,8.55
2023-04-01T17:45:47.851Z,6.05
2023-04-01T17:48:35.858Z,6.90
2023-04-01T17:51:28.148Z,4.97
2023-04-01T17:54:00.868Z,6.30
2023-04-01T17:56:40.560Z,8.40
2023-04-01T17:59:35.056Z,7.03
2023-04-01T18:02:37.447Z,4.68
2023-04-01T18:05:41.336Z,5.97
2023-04-01T18:08:30.948Z,7.50
2023-04-01T18:11:21.018Z,5.07
2023-04-01T18:14:19.640Z,6.20
2023-04-01T18:16:52.602Z,10.40
2023-04-01T18:19:50.738Z,4.53
2023-04-01T18:22:32.394Z,5.05
2023-04-01T18:25:31.250Z,9.00
2023-04-01T18:28:43.766Z,8.25
2023-04-01T18:32:11.482Z,5.55
2023-04-01T18:34:59.797Z,7.80
2023-04-01T18:37:48.944Z,8.02
2023-04-01T18:40:54.358Z,4.47
2023-04-01T18:43:30.834Z,5.15
2023-04-01T18:46:08.807Z,8.13
2023-04-01T18:48:54.990Z,7.78
2023-04-01T18:51:57.206Z,7.85
2023-04-01T18:54:59.920Z,9.15
2023-04-01T18:57:44.830Z,6.25
2023-04-01T19:00:27.513Z,6.70
2023-04-01T19:03:09.385Z,5.68
2023-04-01T19:05:49.230Z,6.75
2023-04-01T19:08:34.192Z,10.63
2023-04-01T19:11:04.375Z,11.25
2023-04-01T19:13:35.128Z,7.70
2023-04-01T19:16:16.465Z,7.35
2023-04-01T19:19:09.895Z,5.00
2023-04-01T19:22:02.837Z,7.40
2023-04-01T19:24:52.642Z,7.75
2023-04-01T19:27:40.416Z,6.82
2023-04-01T19:32:58.319Z,7.78
2023-04-01T19:36:05.072Z,7.85
2023-04-01T19:38:39.106Z,8.98
2023-04-01T19:41:31.564Z,6.13
2023-04-01T19:44:44.694Z,8.10
2023-04-01T19:47:48.711Z,9.25
2023-04-01T19:50:56.482Z,7.53
2023-04-01T19:53:42.819Z,5.47
2023-04-01T19:56:42.181Z,5.22
2023-04-01T19:59:15.768Z,6.45
2023-04-01T20:02:00.617Z,10.10
2023-04-01T20:04:39.325Z,11.38
2023-04-01T20:07:22.813Z,9.35
2023-04-01T20:10:15.384Z,9.27
2023-04-01T20:12:58.233Z,9.73
2023-04-01T20:15:38.882Z,13.30
2023-04-01T20:18:52.037Z,8.18
2023-04-01T20:21:41.560Z,8.77
2023-04-01T20:24:20.254Z,6.32
2023-04-01T20:27:18.404Z,12.95
2023-04-01T20:30:20.709Z,9.75
2023-04-01T20:33:25.289Z,13.95
2023-04-01T20:36:17.521Z,9.98
2023-04-01T20:39:19.523Z,8.15
2023-04-01T20:42:00.426Z,7.60
2023-04-01T20:45:06.230Z,8.55
2023-04-01T20:48:22.283Z,9.88
2023-04-01T20:51:21.460Z,9.85
2023-04-01T20:54:28.662Z,11.25
2023-04-01T20:57:40.240Z,9.88
2023-04-01T21:00:43.377Z,6.30
2023-04-01T21:03:48.730Z,11.02
2023-04-01T21:06:45.439Z,8.10
2023-04-01T21:09:44.521Z,9.23
2023-04-01T21:12:40.449Z,9.02
2023-04-01T21:15:29.413Z,10.23
2023-04-01T21:18:39.662Z,10.95
2023-04-01T21:21:24.799Z,10.52
2023-04-01T21:24:22.558Z,9.60
2023-04-01T21:27:07.962Z,10.68
2023-04-01T21:29:38.515Z,11.90
2023-04-01T21:32:28.395Z,9.40
2023-04-01T21:35:23.233Z,10.32
2023-04-01T21:38:02.829Z,11.25
2023-04-01T21:41:30.650Z,16.77
2023-04-01T21:44:21.723Z,11.25
2023-04-01T21:46:51.929Z,8.57
2023-04-01T21:49:40.635Z,11.45
2023-04-01T21:52:57.074Z,10.18
2023-04-01T21:55:52.508Z,10.93
2023-04-01T21:58:52.662Z,13.38
2023-04-01T22:01:52.440Z,11.50
2023-04-01T22:04:31.567Z,9.13
2023-04-01T22:07:19.468Z,9.05
2023-04-01T22:10:20.640Z,12.73
2023-04-01T22:12:59.660Z,9.80
2023-04-01T22:15:52.135Z,11.13
2023-04-01T22:18:49.231Z,12.43
2023-04-01T22:21:32.469Z,9.15
2023-04-01T22:24:41.400Z,9.65
2023-04-01T22:27:56.594Z,12.30
2023-04-01T22:30:33.832Z,8.95
2023-04-01T22:33:39.380Z,13.07
2023-04-01T22:36:41.333Z,8.13
2023-04-01T22:39:28.189Z,11.85
2023-04-01T22:42:13.091Z,10.90
2023-04-01T22:45:02.787Z,14.75
2023-04-01T22:48:04.314Z,11.52
2023-04-01T22:50:46.683Z,10.60
2023-04-01T22:53:27.290Z,10.18
2023-04-01T22:56:07.350Z,14.27
2023-04-01T22:58:44.441Z,9.95
2023-04-01T23:01:34.556Z,7.95
2023-04-01T23:04:11.731Z,9.68
2023-04-01T23:06:53.301Z,14.52
2023-04-01T23:09:39.254Z,12.48
2023-04-01T23:12:17.809Z,12.25
2023-04-01T23:15:04.294Z,9.55
2023-04-01T23:17:49.513Z,15.40
2023-04-01T23:20:37.917Z,8.63
2023-04-01T23:23:24.500Z,11.13
2023-04-01T23:26:13.230Z,15.70
2023-04-01T23:28:48.665Z,11.82
2023-04-01T23:31:48.592Z,15.68
2023-04-01T23:37:18.524Z,11.68
2023-04-01T23:40:01.947Z,8.93
2023-04-01T23:42:41.181Z,12.80
2023-04-01T23:45:22.979Z,14.40
2023-04-01T23:53:52.229Z,10.77
2023-04-01T23:56:24.075Z,9.02
2023-04-01T23:58:58.287Z,13.27
